sensor_id;sensor_type;location;lat;lon;timestamp;temperature;humidity
17284;DHT22;8760;52.248;20.952;2022-10-22T00:01:07;8.80;99.90
17284;DHT22;8760;52.248;20.952;2022-10-22T00:03:34;8.80;99.90
17284;DHT22;8760;52.248;20.952;2022-10-22T00:06:01;8.90;99.90
17284;DHT22;8760;52.248;20.952;2022-10-22T00:08:28;8.80;99.90
17284;DHT22;8760;52.248;20.952;2022-10-22T00:10:56;8.90;99.90
17284;DHT22;8760;52.248;20.952;2022-10-22T00:13:23;8.90;99.90
17284;DHT22;8760;52.248;20.952;2022-10-22T00:15:50;8.90;99.90
17284;DHT22;8760;52.248;20.952;2022-10-22T00:18:17;8.90;99.90
17284;DHT22;8760;52.248;20.952;2022-10-22T00:20:44;8.90;99.90
17284;DHT22;8760;52.248;20.952;2022-10-22T00:23:11;8.90;99.90
17284;DHT22;8760;52.248;20.952;2022-10-22T00:25:38;9.00;99.90
17284;DHT22;8760;52.248;20.952;2022-10-22T00:28:06;9.00;99.90
17284;DHT22;8760;52.248;20.952;2022-10-22T00:30:33;9.00;99.90
17284;DHT22;8760;52.248;20.952;2022-10-22T00:33:00;9.00;99.90
17284;DHT22;8760;52.248;20.952;2022-10-22T00:35:27;9.00;99.90
17284;DHT22;8760;52.248;20.952;2022-10-22T00:37:54;9.10;99.90
17284;DHT22;8760;52.248;20.952;2022-10-22T00:40:21;9.10;99.90
17284;DHT22;8760;52.248;20.952;2022-10-22T00:42:48;9.10;99.90
17284;DHT22;8760;52.248;20.952;2022-10-22T00:45:23;9.10;99.90
17284;DHT22;8760;52.248;20.952;2022-10-22T00:47:54;9.10;99.90
17284;DHT22;8760;52.248;20.952;2022-10-22T00:50:25;9.20;99.90
17284;DHT22;8760;52.248;20.952;2022-10-22T00:52:53;9.20;99.90
17284;DHT22;8760;52.248;20.952;2022-10-22T00:55:21;9.20;99.90
17284;DHT22;8760;52.248;20.952;2022-10-22T00:57:50;9.30;99.90
17284;DHT22;8760;52.248;20.952;2022-10-22T01:00:19;9.30;99.90
17284;DHT22;8760;52.248;20.952;2022-10-22T01:02:47;9.30;99.90
17284;DHT22;8760;52.248;20.952;2022-10-22T01:05:15;9.30;99.90
17284;DHT22;8760;52.248;20.952;2022-10-22T01:07:45;9.30;99.90
17284;DHT22;8760;52.248;20.952;2022-10-22T01:10:23;9.30;99.90
17284;DHT22;8760;52.248;20.952;2022-10-22T01:12:57;9.40;99.90
17284;DHT22;8760;52.248;20.952;2022-10-22T01:15:35;9.30;99.90
17284;DHT22;8760;52.248;20.952;2022-10-22T01:18:07;9.40;99.90
17284;DHT22;8760;52.248;20.952;2022-10-22T01:20:49;9.40;99.90
17284;DHT22;8760;52.248;20.952;2022-10-22T01:23:29;9.40;99.90
17284;DHT22;8760;52.248;20.952;2022-10-22T01:26:03;9.30;99.90
17284;DHT22;8760;52.248;20.952;2022-10-22T01:28:54;9.30;99.90
17284;DHT22;8760;52.248;20.952;2022-10-22T01:31:25;9.40;99.90
17284;DHT22;8760;52.248;20.952;2022-10-22T01:33:56;9.40;99.90
17284;DHT22;8760;52.248;20.952;2022-10-22T01:36:24;9.40;99.90
17284;DHT22;8760;52.248;20.952;2022-10-22T01:38:52;9.40;99.90
17284;DHT22;8760;52.248;20.952;2022-10-22T01:41:20;9.40;99.90
17284;DHT22;8760;52.248;20.952;2022-10-22T01:43:47;9.40;99.90
17284;DHT22;8760;52.248;20.952;2022-10-22T01:46:16;9.50;99.90
17284;DHT22;8760;52.248;20.952;2022-10-22T01:48:50;9.40;99.90
17284;DHT22;8760;52.248;20.952;2022-10-22T01:51:38;9.50;99.90
17284;DHT22;8760;52.248;20.952;2022-10-22T01:54:17;9.50;99.90
17284;DHT22;8760;52.248;20.952;2022-10-22T01:56:54;9.50;99.90
17284;DHT22;8760;52.248;20.952;2022-10-22T01:59:31;9.50;99.90
17284;DHT22;8760;52.248;20.952;2022-10-22T02:02:04;9.50;99.90
17284;DHT22;8760;52.248;20.952;2022-10-22T02:04:37;9.50;99.90
17284;DHT22;8760;52.248;20.952;2022-10-22T02:07:09;9.50;99.90
17284;DHT22;8760;52.248;20.952;2022-10-22T02:09:39;9.40;99.90
17284;DHT22;8760;52.248;20.952;2022-10-22T02:12:08;9.40;99.90
17284;DHT22;8760;52.248;20.952;2022-10-22T02:14:37;9.40;99.90
17284;DHT22;8760;52.248;20.952;2022-10-22T02:17:09;9.30;99.90
17284;DHT22;8760;52.248;20.952;2022-10-22T02:19:40;9.30;99.90
17284;DHT22;8760;52.248;20.952;2022-10-22T02:22:09;9.40;99.90
17284;DHT22;8760;52.248;20.952;2022-10-22T02:24:36;9.30;99.90
17284;DHT22;8760;52.248;20.952;2022-10-22T02:27:08;9.30;99.90
17284;DHT22;8760;52.248;20.952;2022-10-22T02:29:39;9.30;99.90
17284;DHT22;8760;52.248;20.952;2022-10-22T02:32:16;9.30;99.90
17284;DHT22;8760;52.248;20.952;2022-10-22T02:34:45;9.30;99.90
17284;DHT22;8760;52.248;20.952;2022-10-22T02:37:13;9.30;99.90
17284;DHT22;8760;52.248;20.952;2022-10-22T02:39:41;9.30;99.90
17284;DHT22;8760;52.248;20.952;2022-10-22T02:42:09;9.30;99.90
17284;DHT22;8760;52.248;20.952;2022-10-22T02:44:37;9.30;99.90
17284;DHT22;8760;52.248;20.952;2022-10-22T02:47:04;9.30;99.90
17284;DHT22;8760;52.248;20.952;2022-10-22T02:49:33;9.40;99.90
17284;DHT22;8760;52.248;20.952;2022-10-22T02:52:00;9.40;99.90
17284;DHT22;8760;52.248;20.952;2022-10-22T02:54:27;9.30;99.90
17284;DHT22;8760;52.248;20.952;2022-10-22T02:56:54;9.30;99.90
17284;DHT22;8760;52.248;20.952;2022-10-22T02:59:21;9.30;99.90
17284;DHT22;8760;52.248;20.952;2022-10-22T03:01:47;9.30;99.90
17284;DHT22;8760;52.248;20.952;2022-10-22T03:04:14;9.30;99.90
17284;DHT22;8760;52.248;20.952;2022-10-22T03:06:43;9.30;99.90
17284;DHT22;8760;52.248;20.952;2022-10-22T03:09:10;9.30;99.90
17284;DHT22;8760;52.248;20.952;2022-10-22T03:11:37;9.30;99.90
17284;DHT22;8760;52.248;20.952;2022-10-22T03:14:04;9.30;99.90
17284;DHT22;8760;52.248;20.952;2022-10-22T03:16:31;9.40;99.90
17284;DHT22;8760;52.248;20.952;2022-10-22T03:18:57;9.40;99.90
17284;DHT22;8760;52.248;20.952;2022-10-22T03:21:31;9.40;99.90
17284;DHT22;8760;52.248;20.952;2022-10-22T03:24:06;9.30;99.90
17284;DHT22;8760;52.248;20.952;2022-10-22T03:26:35;9.30;99.90
17284;DHT22;8760;52.248;20.952;2022-10-22T03:29:02;9.30;99.90
17284;DHT22;8760;52.248;20.952;2022-10-22T03:31:29;9.30;99.90
17284;DHT22;8760;52.248;20.952;2022-10-22T03:33:56;9.30;99.90
17284;DHT22;8760;52.248;20.952;2022-10-22T03:36:23;9.30;99.90
17284;DHT22;8760;52.248;20.952;2022-10-22T03:38:51;9.30;99.90
17284;DHT22;8760;52.248;20.952;2022-10-22T03:41:19;9.30;99.90
17284;DHT22;8760;52.248;20.952;2022-10-22T03:43:46;9.30;99.90
17284;DHT22;8760;52.248;20.952;2022-10-22T03:46:17;9.40;99.90
17284;DHT22;8760;52.248;20.952;2022-10-22T03:48:44;9.40;99.90
17284;DHT22;8760;52.248;20.952;2022-10-22T03:51:11;9.40;99.90
17284;DHT22;8760;52.248;20.952;2022-10-22T03:53:38;9.40;99.90
17284;DHT22;8760;52.248;20.952;2022-10-22T03:56:07;9.40;99.90
17284;DHT22;8760;52.248;20.952;2022-10-22T03:58:37;9.40;99.90
17284;DHT22;8760;52.248;20.952;2022-10-22T04:01:05;9.40;99.90
17284;DHT22;8760;52.248;20.952;2022-10-22T04:03:32;9.40;99.90
17284;DHT22;8760;52.248;20.952;2022-10-22T04:06:04;9.40;99.90
17284;DHT22;8760;52.248;20.952;2022-10-22T04:08:32;9.40;99.90
17284;DHT22;8760;52.248;20.952;2022-10-22T04:10:59;9.40;99.90
17284;DHT22;8760;52.248;20.952;2022-10-22T04:13:26;9.40;99.90
17284;DHT22;8760;52.248;20.952;2022-10-22T04:15:54;9.50;99.90
17284;DHT22;8760;52.248;20.952;2022-10-22T04:18:22;9.50;99.90
17284;DHT22;8760;52.248;20.952;2022-10-22T04:20:51;9.50;99.90
17284;DHT22;8760;52.248;20.952;2022-10-22T04:23:18;9.50;99.90
17284;DHT22;8760;52.248;20.952;2022-10-22T04:25:44;9.60;99.90
17284;DHT22;8760;52.248;20.952;2022-10-22T04:28:11;9.50;99.90
17284;DHT22;8760;52.248;20.952;2022-10-22T04:30:38;9.50;99.90
17284;DHT22;8760;52.248;20.952;2022-10-22T04:33:07;9.50;99.90
17284;DHT22;8760;52.248;20.952;2022-10-22T04:35:37;9.60;99.90
17284;DHT22;8760;52.248;20.952;2022-10-22T04:38:04;9.50;99.90
17284;DHT22;8760;52.248;20.952;2022-10-22T04:40:31;9.50;99.90
17284;DHT22;8760;52.248;20.952;2022-10-22T04:42:58;9.60;99.90
17284;DHT22;8760;52.248;20.952;2022-10-22T04:45:25;9.60;99.90
17284;DHT22;8760;52.248;20.952;2022-10-22T04:47:51;9.60;99.90
17284;DHT22;8760;52.248;20.952;2022-10-22T04:50:20;9.70;99.90
17284;DHT22;8760;52.248;20.952;2022-10-22T04:52:47;9.60;99.90
17284;DHT22;8760;52.248;20.952;2022-10-22T04:55:14;9.60;99.90
17284;DHT22;8760;52.248;20.952;2022-10-22T04:57:41;9.60;99.90
17284;DHT22;8760;52.248;20.952;2022-10-22T05:00:08;9.70;99.90
17284;DHT22;8760;52.248;20.952;2022-10-22T05:02:35;9.60;99.90
17284;DHT22;8760;52.248;20.952;2022-10-22T05:05:03;9.70;99.90
17284;DHT22;8760;52.248;20.952;2022-10-22T05:07:32;9.70;99.90
17284;DHT22;8760;52.248;20.952;2022-10-22T05:09:59;9.80;99.90
17284;DHT22;8760;52.248;20.952;2022-10-22T05:12:26;9.80;99.90
17284;DHT22;8760;52.248;20.952;2022-10-22T05:14:55;9.80;99.90
17284;DHT22;8760;52.248;20.952;2022-10-22T05:17:22;9.80;99.90
17284;DHT22;8760;52.248;20.952;2022-10-22T05:19:49;9.80;99.90
17284;DHT22;8760;52.248;20.952;2022-10-22T05:22:16;9.80;99.90
17284;DHT22;8760;52.248;20.952;2022-10-22T05:24:44;9.80;99.90
17284;DHT22;8760;52.248;20.952;2022-10-22T05:27:11;9.80;99.90
17284;DHT22;8760;52.248;20.952;2022-10-22T05:29:38;9.80;99.90
17284;DHT22;8760;52.248;20.952;2022-10-22T05:32:04;9.80;99.90
17284;DHT22;8760;52.248;20.952;2022-10-22T05:34:31;9.80;99.90
17284;DHT22;8760;52.248;20.952;2022-10-22T05:37:00;9.90;99.90
17284;DHT22;8760;52.248;20.952;2022-10-22T05:39:27;9.80;99.90
17284;DHT22;8760;52.248;20.952;2022-10-22T05:41:56;9.80;99.90
17284;DHT22;8760;52.248;20.952;2022-10-22T05:44:23;9.80;99.90
17284;DHT22;8760;52.248;20.952;2022-10-22T05:46:49;9.90;99.90
17284;DHT22;8760;52.248;20.952;2022-10-22T05:49:16;9.90;99.90
17284;DHT22;8760;52.248;20.952;2022-10-22T05:51:43;9.90;99.90
17284;DHT22;8760;52.248;20.952;2022-10-22T05:54:16;9.80;99.90
17284;DHT22;8760;52.248;20.952;2022-10-22T05:56:43;9.80;99.90
17284;DHT22;8760;52.248;20.952;2022-10-22T05:59:12;9.80;99.90
17284;DHT22;8760;52.248;20.952;2022-10-22T06:01:40;9.90;99.90
17284;DHT22;8760;52.248;20.952;2022-10-22T06:04:10;9.90;99.90
17284;DHT22;8760;52.248;20.952;2022-10-22T06:06:39;9.90;99.90
17284;DHT22;8760;52.248;20.952;2022-10-22T06:09:11;10.00;99.90
17284;DHT22;8760;52.248;20.952;2022-10-22T06:11:39;10.00;99.90
17284;DHT22;8760;52.248;20.952;2022-10-22T06:14:06;10.10;99.90
17284;DHT22;8760;52.248;20.952;2022-10-22T06:16:34;10.10;99.90
17284;DHT22;8760;52.248;20.952;2022-10-22T06:19:01;10.10;99.90
17284;DHT22;8760;52.248;20.952;2022-10-22T06:21:28;10.10;99.90
17284;DHT22;8760;52.248;20.952;2022-10-22T06:23:56;10.20;99.90
17284;DHT22;8760;52.248;20.952;2022-10-22T06:26:23;10.20;99.90
17284;DHT22;8760;52.248;20.952;2022-10-22T06:28:50;10.20;99.90
17284;DHT22;8760;52.248;20.952;2022-10-22T06:31:17;10.30;99.90
17284;DHT22;8760;52.248;20.952;2022-10-22T06:33:45;10.30;99.90
17284;DHT22;8760;52.248;20.952;2022-10-22T06:36:14;10.30;99.90
17284;DHT22;8760;52.248;20.952;2022-10-22T06:38:41;10.30;99.90
17284;DHT22;8760;52.248;20.952;2022-10-22T06:41:10;10.30;99.90
17284;DHT22;8760;52.248;20.952;2022-10-22T06:43:37;10.30;99.90
17284;DHT22;8760;52.248;20.952;2022-10-22T06:46:06;10.30;99.90
17284;DHT22;8760;52.248;20.952;2022-10-22T06:48:34;10.30;99.90
17284;DHT22;8760;52.248;20.952;2022-10-22T06:51:05;10.30;99.90
17284;DHT22;8760;52.248;20.952;2022-10-22T06:53:32;10.30;99.90
17284;DHT22;8760;52.248;20.952;2022-10-22T06:56:04;10.30;99.90
17284;DHT22;8760;52.248;20.952;2022-10-22T06:58:31;10.40;99.90
17284;DHT22;8760;52.248;20.952;2022-10-22T07:01:02;10.40;99.90
17284;DHT22;8760;52.248;20.952;2022-10-22T07:03:29;10.50;99.90
17284;DHT22;8760;52.248;20.952;2022-10-22T07:05:58;10.40;99.90
17284;DHT22;8760;52.248;20.952;2022-10-22T07:08:27;10.50;99.90
17284;DHT22;8760;52.248;20.952;2022-10-22T07:10:55;10.50;99.90
17284;DHT22;8760;52.248;20.952;2022-10-22T07:13:23;10.60;99.90
17284;DHT22;8760;52.248;20.952;2022-10-22T07:15:54;10.60;99.90
17284;DHT22;8760;52.248;20.952;2022-10-22T07:18:21;10.60;99.90
17284;DHT22;8760;52.248;20.952;2022-10-22T07:20:48;10.60;99.90
17284;DHT22;8760;52.248;20.952;2022-10-22T07:23:16;10.60;99.90
17284;DHT22;8760;52.248;20.952;2022-10-22T07:25:45;10.60;99.90
17284;DHT22;8760;52.248;20.952;2022-10-22T07:28:12;10.60;99.90
17284;DHT22;8760;52.248;20.952;2022-10-22T07:30:39;10.60;99.90
17284;DHT22;8760;52.248;20.952;2022-10-22T07:33:07;10.60;99.90
17284;DHT22;8760;52.248;20.952;2022-10-22T07:35:35;10.60;99.90
17284;DHT22;8760;52.248;20.952;2022-10-22T07:38:02;10.60;99.90
17284;DHT22;8760;52.248;20.952;2022-10-22T07:40:29;10.70;99.90
17284;DHT22;8760;52.248;20.952;2022-10-22T07:42:57;10.60;99.90
17284;DHT22;8760;52.248;20.952;2022-10-22T07:45:24;10.70;99.90
17284;DHT22;8760;52.248;20.952;2022-10-22T07:47:51;10.70;99.90
17284;DHT22;8760;52.248;20.952;2022-10-22T07:50:18;10.70;99.90
17284;DHT22;8760;52.248;20.952;2022-10-22T07:52:45;10.70;99.90
17284;DHT22;8760;52.248;20.952;2022-10-22T07:55:12;10.80;99.90
17284;DHT22;8760;52.248;20.952;2022-10-22T07:57:39;10.80;99.90
17284;DHT22;8760;52.248;20.952;2022-10-22T08:00:09;10.90;99.90
17284;DHT22;8760;52.248;20.952;2022-10-22T08:02:36;10.90;99.90
17284;DHT22;8760;52.248;20.952;2022-10-22T08:05:03;10.90;99.90
17284;DHT22;8760;52.248;20.952;2022-10-22T08:07:30;10.90;99.90
17284;DHT22;8760;52.248;20.952;2022-10-22T08:09:57;10.90;99.90
17284;DHT22;8760;52.248;20.952;2022-10-22T08:12:24;10.90;99.90
17284;DHT22;8760;52.248;20.952;2022-10-22T08:14:51;11.00;99.90
17284;DHT22;8760;52.248;20.952;2022-10-22T08:17:20;11.00;99.90
17284;DHT22;8760;52.248;20.952;2022-10-22T08:19:47;11.10;99.90
17284;DHT22;8760;52.248;20.952;2022-10-22T08:22:14;11.10;99.90
17284;DHT22;8760;52.248;20.952;2022-10-22T08:24:40;11.10;99.90
17284;DHT22;8760;52.248;20.952;2022-10-22T08:27:07;11.10;99.90
17284;DHT22;8760;52.248;20.952;2022-10-22T08:29:34;11.10;99.90
17284;DHT22;8760;52.248;20.952;2022-10-22T08:32:01;11.20;99.90
17284;DHT22;8760;52.248;20.952;2022-10-22T08:34:30;11.10;99.90
17284;DHT22;8760;52.248;20.952;2022-10-22T08:36:57;11.10;99.90
17284;DHT22;8760;52.248;20.952;2022-10-22T08:39:23;11.10;99.90
17284;DHT22;8760;52.248;20.952;2022-10-22T08:41:58;11.20;99.90
17284;DHT22;8760;52.248;20.952;2022-10-22T08:44:47;11.20;99.90
17284;DHT22;8760;52.248;20.952;2022-10-22T08:47:31;11.20;99.90
17284;DHT22;8760;52.248;20.952;2022-10-22T08:50:02;11.20;99.90
17284;DHT22;8760;52.248;20.952;2022-10-22T08:52:31;11.20;99.90
17284;DHT22;8760;52.248;20.952;2022-10-22T08:55:01;11.30;99.90
17284;DHT22;8760;52.248;20.952;2022-10-22T08:57:39;11.40;99.90
17284;DHT22;8760;52.248;20.952;2022-10-22T09:00:13;11.40;99.90
17284;DHT22;8760;52.248;20.952;2022-10-22T09:02:47;11.50;99.90
17284;DHT22;8760;52.248;20.952;2022-10-22T09:05:26;11.50;99.90
17284;DHT22;8760;52.248;20.952;2022-10-22T09:07:55;11.50;99.90
17284;DHT22;8760;52.248;20.952;2022-10-22T09:10:26;11.60;99.90
17284;DHT22;8760;52.248;20.952;2022-10-22T09:12:53;11.60;99.90
17284;DHT22;8760;52.248;20.952;2022-10-22T09:15:20;11.50;99.90
17284;DHT22;8760;52.248;20.952;2022-10-22T09:17:58;11.50;99.90
17284;DHT22;8760;52.248;20.952;2022-10-22T09:20:36;11.50;99.90
17284;DHT22;8760;52.248;20.952;2022-10-22T09:23:16;11.50;99.90
17284;DHT22;8760;52.248;20.952;2022-10-22T09:25:45;11.50;99.90
17284;DHT22;8760;52.248;20.952;2022-10-22T09:28:14;11.50;99.90
17284;DHT22;8760;52.248;20.952;2022-10-22T09:30:41;11.50;99.90
17284;DHT22;8760;52.248;20.952;2022-10-22T09:33:13;11.60;99.90
17284;DHT22;8760;52.248;20.952;2022-10-22T09:35:46;11.50;99.90
17284;DHT22;8760;52.248;20.952;2022-10-22T09:38:15;11.50;99.90
17284;DHT22;8760;52.248;20.952;2022-10-22T09:40:44;11.60;99.90
17284;DHT22;8760;52.248;20.952;2022-10-22T09:43:12;11.50;99.90
17284;DHT22;8760;52.248;20.952;2022-10-22T09:45:40;11.50;99.90
17284;DHT22;8760;52.248;20.952;2022-10-22T09:48:13;11.60;99.90
17284;DHT22;8760;52.248;20.952;2022-10-22T09:50:45;11.70;99.90
17284;DHT22;8760;52.248;20.952;2022-10-22T09:53:16;11.70;99.90
17284;DHT22;8760;52.248;20.952;2022-10-22T09:55:49;11.60;99.90
17284;DHT22;8760;52.248;20.952;2022-10-22T09:58:17;11.60;99.90
17284;DHT22;8760;52.248;20.952;2022-10-22T10:00:47;11.60;99.90
17284;DHT22;8760;52.248;20.952;2022-10-22T10:03:19;11.70;99.90
17284;DHT22;8760;52.248;20.952;2022-10-22T10:05:51;11.70;99.90
17284;DHT22;8760;52.248;20.952;2022-10-22T10:08:18;11.80;99.90
17284;DHT22;8760;52.248;20.952;2022-10-22T10:10:47;11.80;99.90
17284;DHT22;8760;52.248;20.952;2022-10-22T10:13:30;11.80;99.90
17284;DHT22;8760;52.248;20.952;2022-10-22T10:16:06;11.90;99.90
17284;DHT22;8760;52.248;20.952;2022-10-22T10:18:44;11.90;99.90
17284;DHT22;8760;52.248;20.952;2022-10-22T10:21:22;11.90;99.90
17284;DHT22;8760;52.248;20.952;2022-10-22T10:23:56;11.90;99.90
17284;DHT22;8760;52.248;20.952;2022-10-22T10:26:32;11.90;99.90
17284;DHT22;8760;52.248;20.952;2022-10-22T10:29:10;12.00;99.90
17284;DHT22;8760;52.248;20.952;2022-10-22T10:31:51;12.00;99.90
17284;DHT22;8760;52.248;20.952;2022-10-22T10:34:28;11.90;99.90
17284;DHT22;8760;52.248;20.952;2022-10-22T10:37:04;11.90;99.90
17284;DHT22;8760;52.248;20.952;2022-10-22T10:39:38;11.90;99.90
17284;DHT22;8760;52.248;20.952;2022-10-22T10:42:14;11.90;99.90
17284;DHT22;8760;52.248;20.952;2022-10-22T10:45:10;11.90;99.90
17284;DHT22;8760;52.248;20.952;2022-10-22T10:50:47;12.00;99.90
17284;DHT22;8760;52.248;20.952;2022-10-22T10:53:24;11.90;99.90
17284;DHT22;8760;52.248;20.952;2022-10-22T10:55:58;11.90;99.90
17284;DHT22;8760;52.248;20.952;2022-10-22T10:58:33;11.90;99.90
17284;DHT22;8760;52.248;20.952;2022-10-22T11:01:11;12.00;99.90
17284;DHT22;8760;52.248;20.952;2022-10-22T11:04:04;12.00;99.90
17284;DHT22;8760;52.248;20.952;2022-10-22T11:06:36;12.00;99.90
17284;DHT22;8760;52.248;20.952;2022-10-22T11:09:10;12.10;99.90
17284;DHT22;8760;52.248;20.952;2022-10-22T11:11:46;12.00;99.90
17284;DHT22;8760;52.248;20.952;2022-10-22T11:14:18;12.00;99.90
17284;DHT22;8760;52.248;20.952;2022-10-22T11:16:50;12.00;99.90
17284;DHT22;8760;52.248;20.952;2022-10-22T11:19:24;12.10;99.90
17284;DHT22;8760;52.248;20.952;2022-10-22T11:21:56;12.10;99.90
17284;DHT22;8760;52.248;20.952;2022-10-22T11:24:34;12.10;99.90
17284;DHT22;8760;52.248;20.952;2022-10-22T11:27:06;12.10;99.90
17284;DHT22;8760;52.248;20.952;2022-10-22T11:29:40;12.10;99.90
17284;DHT22;8760;52.248;20.952;2022-10-22T11:32:11;12.10;99.90
17284;DHT22;8760;52.248;20.952;2022-10-22T11:34:44;12.10;99.90
17284;DHT22;8760;52.248;20.952;2022-10-22T11:37:13;12.10;99.90
17284;DHT22;8760;52.248;20.952;2022-10-22T11:39:44;12.10;99.90
17284;DHT22;8760;52.248;20.952;2022-10-22T11:42:18;12.20;99.90
17284;DHT22;8760;52.248;20.952;2022-10-22T11:44:49;12.20;99.90
17284;DHT22;8760;52.248;20.952;2022-10-22T11:47:25;12.10;99.90
17284;DHT22;8760;52.248;20.952;2022-10-22T11:49:57;12.20;99.90
17284;DHT22;8760;52.248;20.952;2022-10-22T11:52:36;12.20;99.90
17284;DHT22;8760;52.248;20.952;2022-10-22T11:55:32;12.20;99.90
17284;DHT22;8760;52.248;20.952;2022-10-22T11:58:01;12.20;99.90
17284;DHT22;8760;52.248;20.952;2022-10-22T12:00:48;12.30;99.90
17284;DHT22;8760;52.248;20.952;2022-10-22T12:03:16;12.30;99.90
17284;DHT22;8760;52.248;20.952;2022-10-22T12:05:45;12.20;99.90
17284;DHT22;8760;52.248;20.952;2022-10-22T12:08:24;12.30;99.90
17284;DHT22;8760;52.248;20.952;2022-10-22T12:11:19;12.30;99.90
17284;DHT22;8760;52.248;20.952;2022-10-22T12:14:15;12.40;99.90
17284;DHT22;8760;52.248;20.952;2022-10-22T12:16:46;12.40;99.90
17284;DHT22;8760;52.248;20.952;2022-10-22T12:19:16;12.40;99.90
17284;DHT22;8760;52.248;20.952;2022-10-22T12:21:47;12.50;99.90
17284;DHT22;8760;52.248;20.952;2022-10-22T12:24:16;12.50;99.90
17284;DHT22;8760;52.248;20.952;2022-10-22T12:26:46;12.50;99.90
17284;DHT22;8760;52.248;20.952;2022-10-22T12:29:15;12.60;99.90
17284;DHT22;8760;52.248;20.952;2022-10-22T12:31:45;12.60;99.90
17284;DHT22;8760;52.248;20.952;2022-10-22T12:34:14;12.70;99.90
17284;DHT22;8760;52.248;20.952;2022-10-22T12:36:41;12.70;99.90
17284;DHT22;8760;52.248;20.952;2022-10-22T12:39:13;12.70;99.90
17284;DHT22;8760;52.248;20.952;2022-10-22T12:41:41;12.80;99.90
17284;DHT22;8760;52.248;20.952;2022-10-22T12:44:12;12.80;99.90
17284;DHT22;8760;52.248;20.952;2022-10-22T12:46:40;12.80;99.90
17284;DHT22;8760;52.248;20.952;2022-10-22T12:49:13;12.90;99.90
17284;DHT22;8760;52.248;20.952;2022-10-22T12:51:41;12.90;99.90
17284;DHT22;8760;52.248;20.952;2022-10-22T12:54:17;12.90;99.90
17284;DHT22;8760;52.248;20.952;2022-10-22T12:56:46;12.90;99.90
17284;DHT22;8760;52.248;20.952;2022-10-22T12:59:19;13.00;99.90
17284;DHT22;8760;52.248;20.952;2022-10-22T13:01:49;13.00;99.90
17284;DHT22;8760;52.248;20.952;2022-10-22T13:04:29;13.00;99.90
17284;DHT22;8760;52.248;20.952;2022-10-22T13:07:05;13.00;99.90
17284;DHT22;8760;52.248;20.952;2022-10-22T13:09:41;13.00;99.90
17284;DHT22;8760;52.248;20.952;2022-10-22T13:12:10;13.10;99.90
17284;DHT22;8760;52.248;20.952;2022-10-22T13:14:44;13.00;99.90
17284;DHT22;8760;52.248;20.952;2022-10-22T13:17:14;13.00;99.90
17284;DHT22;8760;52.248;20.952;2022-10-22T13:19:45;13.00;99.90
17284;DHT22;8760;52.248;20.952;2022-10-22T13:22:28;13.00;99.90
17284;DHT22;8760;52.248;20.952;2022-10-22T13:25:02;13.00;99.90
17284;DHT22;8760;52.248;20.952;2022-10-22T13:27:30;13.00;99.90
17284;DHT22;8760;52.248;20.952;2022-10-22T13:30:02;12.90;99.90
17284;DHT22;8760;52.248;20.952;2022-10-22T13:32:31;12.90;99.90
17284;DHT22;8760;52.248;20.952;2022-10-22T13:34:59;12.90;99.90
17284;DHT22;8760;52.248;20.952;2022-10-22T13:37:30;12.90;99.90
17284;DHT22;8760;52.248;20.952;2022-10-22T13:39:57;12.90;99.90
17284;DHT22;8760;52.248;20.952;2022-10-22T13:42:24;12.90;99.90
17284;DHT22;8760;52.248;20.952;2022-10-22T13:44:51;12.90;99.90
17284;DHT22;8760;52.248;20.952;2022-10-22T13:47:28;12.90;99.90
17284;DHT22;8760;52.248;20.952;2022-10-22T13:49:58;12.80;99.90
17284;DHT22;8760;52.248;20.952;2022-10-22T13:52:33;12.80;99.90
17284;DHT22;8760;52.248;20.952;2022-10-22T13:55:05;12.80;99.90
17284;DHT22;8760;52.248;20.952;2022-10-22T13:57:37;12.90;99.90
17284;DHT22;8760;52.248;20.952;2022-10-22T14:00:06;12.90;99.90
17284;DHT22;8760;52.248;20.952;2022-10-22T14:02:34;12.80;99.90
17284;DHT22;8760;52.248;20.952;2022-10-22T14:05:02;12.80;99.90
17284;DHT22;8760;52.248;20.952;2022-10-22T14:07:33;12.80;99.90
17284;DHT22;8760;52.248;20.952;2022-10-22T14:10:00;12.80;99.90
17284;DHT22;8760;52.248;20.952;2022-10-22T14:12:27;12.70;99.90
17284;DHT22;8760;52.248;20.952;2022-10-22T14:14:53;12.70;99.90
17284;DHT22;8760;52.248;20.952;2022-10-22T14:17:20;12.70;99.90
17284;DHT22;8760;52.248;20.952;2022-10-22T14:19:49;12.70;99.90
17284;DHT22;8760;52.248;20.952;2022-10-22T14:22:17;12.80;99.90
17284;DHT22;8760;52.248;20.952;2022-10-22T14:24:44;12.70;99.90
17284;DHT22;8760;52.248;20.952;2022-10-22T14:27:13;12.70;99.90
17284;DHT22;8760;52.248;20.952;2022-10-22T14:29:41;12.70;99.90
17284;DHT22;8760;52.248;20.952;2022-10-22T14:32:15;12.70;99.90
17284;DHT22;8760;52.248;20.952;2022-10-22T14:34:43;12.70;99.90
17284;DHT22;8760;52.248;20.952;2022-10-22T14:37:18;12.70;99.90
17284;DHT22;8760;52.248;20.952;2022-10-22T14:39:46;12.70;99.90
17284;DHT22;8760;52.248;20.952;2022-10-22T14:42:17;12.70;99.90
17284;DHT22;8760;52.248;20.952;2022-10-22T14:44:45;12.70;99.90
17284;DHT22;8760;52.248;20.952;2022-10-22T14:47:12;12.70;99.90
17284;DHT22;8760;52.248;20.952;2022-10-22T14:49:39;12.70;99.90
17284;DHT22;8760;52.248;20.952;2022-10-22T14:52:06;12.70;99.90
17284;DHT22;8760;52.248;20.952;2022-10-22T14:54:34;12.70;99.90
17284;DHT22;8760;52.248;20.952;2022-10-22T14:57:01;12.70;99.90
17284;DHT22;8760;52.248;20.952;2022-10-22T14:59:29;12.70;99.90
17284;DHT22;8760;52.248;20.952;2022-10-22T15:01:56;12.80;99.90
17284;DHT22;8760;52.248;20.952;2022-10-22T15:04:23;12.80;99.90
17284;DHT22;8760;52.248;20.952;2022-10-22T15:06:51;12.80;99.90
17284;DHT22;8760;52.248;20.952;2022-10-22T15:09:21;12.70;99.90
17284;DHT22;8760;52.248;20.952;2022-10-22T15:11:50;12.70;99.90
17284;DHT22;8760;52.248;20.952;2022-10-22T15:14:17;12.70;99.90
17284;DHT22;8760;52.248;20.952;2022-10-22T15:16:44;12.60;99.90
17284;DHT22;8760;52.248;20.952;2022-10-22T15:19:11;12.60;99.90
17284;DHT22;8760;52.248;20.952;2022-10-22T15:21:37;12.60;99.90
17284;DHT22;8760;52.248;20.952;2022-10-22T15:24:05;12.60;99.90
17284;DHT22;8760;52.248;20.952;2022-10-22T15:26:32;12.60;99.90
17284;DHT22;8760;52.248;20.952;2022-10-22T15:29:01;12.60;99.90
17284;DHT22;8760;52.248;20.952;2022-10-22T15:31:44;12.60;99.90
17284;DHT22;8760;52.248;20.952;2022-10-22T15:34:11;12.60;99.90
17284;DHT22;8760;52.248;20.952;2022-10-22T15:36:38;12.60;99.90
17284;DHT22;8760;52.248;20.952;2022-10-22T15:39:07;12.60;99.90
17284;DHT22;8760;52.248;20.952;2022-10-22T15:41:34;12.60;99.90
17284;DHT22;8760;52.248;20.952;2022-10-22T15:44:03;12.50;99.90
17284;DHT22;8760;52.248;20.952;2022-10-22T15:46:31;12.60;99.90
17284;DHT22;8760;52.248;20.952;2022-10-22T15:48:58;12.60;99.90
17284;DHT22;8760;52.248;20.952;2022-10-22T15:51:25;12.60;99.90
17284;DHT22;8760;52.248;20.952;2022-10-22T15:53:53;12.50;99.90
17284;DHT22;8760;52.248;20.952;2022-10-22T15:56:21;12.50;99.90
17284;DHT22;8760;52.248;20.952;2022-10-22T15:58:52;12.60;99.90